Time;durP1;ratioP1;P1;durP2;ratioP2;P2;SDS_P1;SDS_P2;PMS_P1;PMS_P2;Temp;Humidity;BMP_temperature;BMP_pressure;BME280_temperature;BME280_humidity;BME280_pressure;Samples;Min_cycle;Max_cycle;Signal;HPM_P1;HPM_P2
2023/07/11 00:01:43;;;;;;;1.80;1.40;;;;;;;;;;5083338;28;20032;-85
2023/07/11 00:04:09;;;;;;;2.83;1.90;;;;;;;;;;5071157;28;20028;-84
2023/07/11 00:06:34;;;;;;;2.03;1.15;;;;;;;;;;5071487;28;20032;-84
2023/07/11 00:09:00;;;;;;;2.67;1.70;;;;;;;;;;5090958;28;20077;-87
2023/07/11 00:11:25;;;;;;;2.97;1.48;;;;;;;;;;5094174;28;20483;-85
2023/07/11 00:13:51;;;;;;;1.20;1.10;;;;;;;;;;5091584;28;20032;-86
2023/07/11 00:16:17;;;;;;;1.30;1.17;;;;;;;;;;5069417;28;20051;-87
2023/07/11 00:18:44;;;;;;;2.38;1.77;;;;;;;;;;5086248;28;20025;-85
2023/07/11 00:21:10;;;;;;;1.42;1.20;;;;;;;;;;5089782;28;20032;-88
2023/07/11 00:23:36;;;;;;;1.60;1.50;;;;;;;;;;5069283;28;20028;-86
2023/07/11 00:26:02;;;;;;;1.55;1.42;;;;;;;;;;5070541;28;20028;-88
2023/07/11 00:28:27;;;;;;;2.70;1.50;;;;;;;;;;5083005;28;20032;-84
2023/07/11 00:30:53;;;;;;;2.00;1.58;;;;;;;;;;5086552;28;20487;-86
2023/07/11 00:33:20;;;;;;;6.60;2.03;;;;;;;;;;5075893;28;20058;-87
2023/07/11 00:35:49;;;;;;;1.83;1.30;;;;;;;;;;5073631;28;20035;-86
2023/07/11 00:38:15;;;;;;;1.13;1.02;;;;;;;;;;5087954;28;20104;-85
2023/07/11 00:40:45;;;;;;;2.35;1.73;;;;;;;;;;5066306;28;20113;-85
2023/07/11 00:43:16;;;;;;;2.83;1.77;;;;;;;;;;5071353;28;20160;-87
2023/07/11 00:46:04;;;;;;;1.58;1.27;;;;;;;;;;5066884;28;20029;-87
2023/07/11 00:48:36;;;;;;;2.15;1.45;;;;;;;;;;5071583;28;20024;-86
2023/07/11 00:51:03;;;;;;;1.67;1.42;;;;;;;;;;5068876;28;20020;-86
2023/07/11 00:53:30;;;;;;;2.17;1.70;;;;;;;;;;5087830;28;20157;-88
2023/07/11 00:56:00;;;;;;;3.03;1.50;;;;;;;;;;5063179;28;20024;-88
2023/07/11 00:58:25;;;;;;;;;;;;;;;;;;5089506;28;20537;-86
2023/07/11 01:00:51;;;;;;;1.38;1.27;;;;;;;;;;5084431;28;19916;-86
2023/07/11 01:03:17;;;;;;;2.70;1.85;;;;;;;;;;5081199;28;20028;-85
2023/07/11 01:05:43;;;;;;;1.65;1.45;;;;;;;;;;5084808;28;20077;-86
2023/07/11 01:08:09;;;;;;;2.67;1.40;;;;;;;;;;5093684;28;20024;-85
2023/07/11 01:10:35;;;;;;;3.50;2.22;;;;;;;;;;5071374;28;20493;-84
2023/07/11 01:13:04;;;;;;;1.70;1.60;;;;;;;;;;5090639;28;20047;-85
2023/07/11 01:15:30;;;;;;;2.50;1.75;;;;;;;;;;5068265;28;20024;-85
2023/07/11 01:17:55;;;;;;;2.65;1.98;;;;;;;;;;5088694;28;20380;-84
2023/07/11 01:20:22;;;;;;;1.35;1.17;;;;;;;;;;5068740;28;20024;-85
2023/07/11 01:22:51;;;;;;;2.83;1.35;;;;;;;;;;5068714;28;20066;-86
2023/07/11 01:25:16;;;;;;;1.27;1.02;;;;;;;;;;5084730;28;20029;-85
2023/07/11 01:27:46;;;;;;;1.30;1.20;;;;;;;;;;5070424;28;20055;-87
2023/07/11 01:30:14;;;;;;;1.15;0.98;;;;;;;;;;5084027;28;20020;-86
2023/07/11 01:32:39;;;;;;;1.95;1.38;;;;;;;;;;5085502;28;20617;-85
2023/07/11 01:35:05;;;;;;;1.83;1.25;;;;;;;;;;5083289;28;20055;-88
2023/07/11 01:37:31;;;;;;;1.67;1.40;;;;;;;;;;5083517;28;20036;-86
2023/07/11 01:39:56;;;;;;;5.38;1.15;;;;;;;;;;5085662;28;20055;-87
2023/07/11 01:42:23;;;;;;;1.83;1.45;;;;;;;;;;5064380;28;20388;-86
2023/07/11 01:44:49;;;;;;;1.27;1.00;;;;;;;;;;5086460;28;20103;-85
2023/07/11 01:47:14;;;;;;;2.30;1.65;;;;;;;;;;5070286;28;20116;-85
2023/07/11 01:49:40;;;;;;;3.10;1.35;;;;;;;;;;5090447;28;20085;-85
2023/07/11 01:52:17;;;;;;;3.10;1.98;;;;;;;;;;5085842;28;20040;-84
2023/07/11 01:54:43;;;;;;;2.35;1.63;;;;;;;;;;5071493;28;20028;-86
2023/07/11 01:57:09;;;;;;;1.65;1.33;;;;;;;;;;5089092;28;20038;-85
2023/07/11 01:59:37;;;;;;;2.08;1.58;;;;;;;;;;5086645;28;20078;-85
2023/07/11 02:02:03;;;;;;;2.65;1.42;;;;;;;;;;5082561;28;20427;-86
2023/07/11 02:04:29;;;;;;;1.58;1.30;;;;;;;;;;5083884;28;20523;-85
2023/07/11 02:06:55;;;;;;;2.67;1.95;;;;;;;;;;5086658;28;20055;-86
2023/07/11 02:09:21;;;;;;;2.10;1.75;;;;;;;;;;5063504;28;20036;-87
2023/07/11 02:11:47;;;;;;;2.60;2.20;;;;;;;;;;5070671;28;20445;-84
2023/07/11 02:14:15;;;;;;;2.20;1.30;;;;;;;;;;5084466;28;20044;-84
2023/07/11 02:16:47;;;;;;;2.22;1.58;;;;;;;;;;5086322;28;20070;-84
2023/07/11 02:19:14;;;;;;;1.80;1.38;;;;;;;;;;5071438;28;20030;-86
2023/07/11 02:21:40;;;;;;;1.80;1.42;;;;;;;;;;5083067;28;20233;-85
2023/07/11 02:24:08;;;;;;;2.88;1.15;;;;;;;;;;5087539;28;20467;-85
2023/07/11 02:26:34;;;;;;;2.28;1.38;;;;;;;;;;5070131;28;20160;-86
2023/07/11 02:29:00;;;;;;;1.80;1.50;;;;;;;;;;5087036;28;20143;-86
2023/07/11 02:31:26;;;;;;;2.17;1.55;;;;;;;;;;5091070;28;20039;-86
2023/07/11 02:33:51;;;;;;;2.20;1.40;;;;;;;;;;5084572;28;20051;-85
2023/07/11 02:36:17;;;;;;;2.80;1.98;;;;;;;;;;5066444;28;20494;-85
2023/07/11 02:38:43;;;;;;;2.80;1.77;;;;;;;;;;5086289;28;20047;-87
2023/07/11 02:41:08;;;;;;;3.47;2.08;;;;;;;;;;5068371;28;20036;-88
2023/07/11 02:43:34;;;;;;;2.17;1.42;;;;;;;;;;5088786;28;20093;-86
2023/07/11 02:45:59;;;;;;;9.38;2.00;;;;;;;;;;5073268;28;20087;-85
2023/07/11 02:48:25;;;;;;;2.25;1.50;;;;;;;;;;5084676;28;20024;-85
2023/07/11 02:50:51;;;;;;;1.75;1.63;;;;;;;;;;5082683;28;20080;-85
2023/07/11 02:53:16;;;;;;;4.07;2.05;;;;;;;;;;5070493;28;20055;-88
2023/07/11 02:55:42;;;;;;;2.17;1.73;;;;;;;;;;5082586;28;20021;-87
2023/07/11 02:58:07;;;;;;;2.15;1.80;;;;;;;;;;5084152;28;20107;-86
2023/07/11 03:00:33;;;;;;;2.70;2.15;;;;;;;;;;5066865;28;20403;-87
2023/07/11 03:02:58;;;;;;;2.58;1.55;;;;;;;;;;5078208;28;20545;-86
2023/07/11 03:05:24;;;;;;;2.50;1.48;;;;;;;;;;5064267;28;20073;-86
2023/07/11 03:07:49;;;;;;;2.63;1.98;;;;;;;;;;5085267;28;20293;-86
2023/07/11 03:10:15;;;;;;;0.95;0.75;;;;;;;;;;5065515;28;20028;-88
2023/07/11 03:12:40;;;;;;;1.92;1.50;;;;;;;;;;5085429;28;20019;-87
2023/07/11 03:15:07;;;;;;;2.20;1.38;;;;;;;;;;5083722;28;20076;-86
2023/07/11 03:17:32;;;;;;;1.92;1.30;;;;;;;;;;5084042;28;20021;-85
2023/07/11 03:19:58;;;;;;;3.15;2.00;;;;;;;;;;5083276;28;20085;-85
2023/07/11 03:22:24;;;;;;;3.13;1.80;;;;;;;;;;5066189;28;20043;-86
2023/07/11 03:24:49;;;;;;;1.60;1.27;;;;;;;;;;5068389;28;20111;-85
2023/07/11 03:27:15;;;;;;;3.92;1.70;;;;;;;;;;5095641;28;20496;-87
2023/07/11 03:29:41;;;;;;;1.08;0.88;;;;;;;;;;5098301;28;20032;-85
2023/07/11 03:32:09;;;;;;;2.30;1.67;;;;;;;;;;5087570;28;20575;-85
2023/07/11 03:34:34;;;;;;;2.75;1.95;;;;;;;;;;5092463;28;20028;-86
2023/07/11 03:37:00;;;;;;;3.13;1.65;;;;;;;;;;5094063;28;20823;-87
2023/07/11 03:39:25;;;;;;;4.18;1.27;;;;;;;;;;5089925;28;20036;-85
2023/07/11 03:41:51;;;;;;;2.05;1.27;;;;;;;;;;5071242;28;20111;-87
2023/07/11 03:44:17;;;;;;;3.33;1.85;;;;;;;;;;5087634;28;20032;-89
2023/07/11 03:46:43;;;;;;;3.70;1.63;;;;;;;;;;5092044;28;20522;-87
2023/07/11 03:49:09;;;;;;;2.83;1.80;;;;;;;;;;5074928;28;20111;-89
2023/07/11 03:51:49;;;;;;;2.05;1.70;;;;;;;;;;5074177;28;20024;-88
2023/07/11 03:54:14;;;;;;;;;;;;;;;;;;5074977;28;20038;-86
2023/07/11 03:56:42;;;;;;;3.28;2.45;;;;;;;;;;5087052;28;20275;-88
2023/07/11 03:59:07;;;;;;;1.55;1.17;;;;;;;;;;5071127;28;20027;-87
2023/07/11 04:01:35;;;;;;;3.42;1.45;;;;;;;;;;5092356;28;20047;-86
2023/07/11 04:04:01;;;;;;;1.75;1.42;;;;;;;;;;5071659;28;20078;-88
2023/07/11 04:06:26;;;;;;;1.40;1.30;;;;;;;;;;5073036;28;20487;-86
2023/07/11 04:08:52;;;;;;;3.05;1.95;;;;;;;;;;5087178;28;20089;-87
2023/07/11 04:11:17;;;;;;;2.80;2.10;;;;;;;;;;5076885;28;20016;-88
2023/07/11 04:13:43;;;;;;;2.70;1.80;;;;;;;;;;5083640;28;20024;-87
2023/07/11 04:16:08;;;;;;;3.10;1.90;;;;;;;;;;5072921;28;20023;-87
2023/07/11 04:18:34;;;;;;;2.53;1.85;;;;;;;;;;5088465;28;20460;-87
2023/07/11 04:20:59;;;;;;;2.10;1.58;;;;;;;;;;5071831;28;20024;-85
2023/07/11 04:23:25;;;;;;;3.28;1.92;;;;;;;;;;5072775;28;20032;-85
2023/07/11 04:25:52;;;;;;;2.75;1.92;;;;;;;;;;5066619;28;20043;-87
2023/07/11 04:28:17;;;;;;;2.45;1.90;;;;;;;;;;5073173;28;20029;-87
2023/07/11 04:30:43;;;;;;;1.77;1.48;;;;;;;;;;5072377;28;20381;-82
2023/07/11 04:33:08;;;;;;;2.22;1.80;;;;;;;;;;5066707;28;20035;-80
2023/07/11 04:35:34;;;;;;;3.88;1.90;;;;;;;;;;5084050;28;20028;-82
2023/07/11 04:37:59;;;;;;;3.17;2.47;;;;;;;;;;5069236;28;20059;-79
2023/07/11 04:40:24;;;;;;;3.28;2.55;;;;;;;;;;5086057;28;21342;-80
2023/07/11 04:42:50;;;;;;;3.22;2.72;;;;;;;;;;5073411;28;20055;-80
2023/07/11 04:45:16;;;;;;;4.38;3.03;;;;;;;;;;5069852;28;20035;-81
2023/07/11 04:47:41;;;;;;;3.30;2.35;;;;;;;;;;5067598;28;20040;-81
2023/07/11 04:50:07;;;;;;;2.60;1.98;;;;;;;;;;5088436;28;20396;-80
2023/07/11 04:52:33;;;;;;;2.17;1.70;;;;;;;;;;5090103;28;20028;-81
2023/07/11 04:54:59;;;;;;;2.00;1.83;;;;;;;;;;5084019;28;20107;-81
2023/07/11 04:57:24;;;;;;;2.40;2.20;;;;;;;;;;5068217;28;20495;-79
2023/07/11 04:59:50;;;;;;;2.88;1.98;;;;;;;;;;5067492;28;20110;-81
2023/07/11 05:02:15;;;;;;;4.05;2.55;;;;;;;;;;5077489;28;20028;-81
2023/07/11 05:04:41;;;;;;;2.30;1.95;;;;;;;;;;5083519;28;20037;-83
2023/07/11 05:07:07;;;;;;;2.20;2.00;;;;;;;;;;5063175;28;20442;-81
2023/07/11 05:09:32;;;;;;;7.50;2.78;;;;;;;;;;5084850;28;20561;-85
2023/07/11 05:12:00;;;;;;;3.90;2.15;;;;;;;;;;5087117;28;20048;-85
2023/07/11 05:14:27;;;;;;;2.17;1.98;;;;;;;;;;5086655;28;20378;-81
2023/07/11 05:16:52;;;;;;;2.80;1.98;;;;;;;;;;5086969;28;20027;-84
2023/07/11 05:19:19;;;;;;;5.22;2.85;;;;;;;;;;5067360;28;20027;-82
2023/07/11 05:21:45;;;;;;;3.05;2.30;;;;;;;;;;5068587;28;20507;-82
2023/07/11 05:24:11;;;;;;;3.22;2.05;;;;;;;;;;5068803;28;20032;-79
2023/07/11 05:26:37;;;;;;;4.97;2.50;;;;;;;;;;5077535;28;20116;-82
2023/07/11 05:29:05;;;;;;;2.58;1.95;;;;;;;;;;5085157;28;20035;-82
2023/07/11 05:31:31;;;;;;;4.38;3.40;;;;;;;;;;5064825;28;20040;-82
2023/07/11 05:33:56;;;;;;;3.08;2.20;;;;;;;;;;5086084;28;20023;-83
2023/07/11 05:36:33;;;;;;;3.30;2.30;;;;;;;;;;5080419;28;20490;-82
2023/07/11 05:39:10;;;;;;;3.45;2.50;;;;;;;;;;5068996;28;20027;-82
2023/07/11 05:41:37;;;;;;;2.25;1.85;;;;;;;;;;5060893;28;20035;-82
2023/07/11 05:44:03;;;;;;;2.08;1.65;;;;;;;;;;5080601;28;20559;-82
2023/07/11 05:46:29;;;;;;;2.17;1.92;;;;;;;;;;5085547;28;20048;-81
2023/07/11 05:48:56;;;;;;;2.42;2.17;;;;;;;;;;5086149;28;20112;-82
2023/07/11 05:51:23;;;;;;;3.03;2.72;;;;;;;;;;5089950;28;20024;-81
2023/07/11 05:53:49;;;;;;;4.63;3.28;;;;;;;;;;5086292;28;20104;-82
2023/07/11 05:56:16;;;;;;;2.88;2.30;;;;;;;;;;5093499;28;20170;-82
2023/07/11 05:58:43;;;;;;;3.05;2.33;;;;;;;;;;5079679;28;20085;-85
2023/07/11 06:01:15;;;;;;;3.53;2.30;;;;;;;;;;5087377;28;20191;-87
2023/07/11 06:03:41;;;;;;;2.95;2.22;;;;;;;;;;5067067;28;20019;-84
2023/07/11 06:06:08;;;;;;;2.70;1.92;;;;;;;;;;5068821;28;21610;-84
2023/07/11 06:08:34;;;;;;;2.28;2.03;;;;;;;;;;5069902;28;20097;-82
2023/07/11 06:11:02;;;;;;;3.42;2.40;;;;;;;;;;5087600;28;20024;-84
2023/07/11 06:13:30;;;;;;;2.80;2.50;;;;;;;;;;5089237;28;20429;-83
2023/07/11 06:16:00;;;;;;;2.63;2.40;;;;;;;;;;5094144;28;20462;-83
2023/07/11 06:18:26;;;;;;;2.88;2.20;;;;;;;;;;5092994;28;20495;-82
2023/07/11 06:20:51;;;;;;;3.58;2.60;;;;;;;;;;5084966;28;20059;-84
2023/07/11 06:23:19;;;;;;;2.72;2.03;;;;;;;;;;5091636;28;20027;-83
2023/07/11 06:25:45;;;;;;;2.53;2.22;;;;;;;;;;5076233;28;20093;-82
2023/07/11 06:28:10;;;;;;;3.78;2.30;;;;;;;;;;5089204;28;20460;-84
2023/07/11 06:30:36;;;;;;;3.13;2.13;;;;;;;;;;5067858;28;20024;-84
2023/07/11 06:33:01;;;;;;;3.35;2.45;;;;;;;;;;5067699;28;20023;-82
2023/07/11 06:35:27;;;;;;;3.60;2.58;;;;;;;;;;5090750;28;20407;-83
2023/07/11 06:37:52;;;;;;;2.92;2.33;;;;;;;;;;5070784;28;20361;-82
2023/07/11 06:40:18;;;;;;;2.60;2.05;;;;;;;;;;5064958;28;20111;-83
2023/07/11 06:42:43;;;;;;;3.15;2.08;;;;;;;;;;5068927;28;20040;-79
2023/07/11 06:45:09;;;;;;;3.10;2.40;;;;;;;;;;5087552;28;20031;-82
2023/07/11 06:47:34;;;;;;;2.67;1.92;;;;;;;;;;5081070;28;20496;-79
2023/07/11 06:50:00;;;;;;;3.45;2.20;;;;;;;;;;5062520;28;20553;-80
2023/07/11 06:52:25;;;;;;;3.55;1.98;;;;;;;;;;5084943;28;20031;-82
2023/07/11 06:54:51;;;;;;;2.67;2.28;;;;;;;;;;5086697;28;20210;-81
2023/07/11 06:57:18;;;;;;;5.18;3.00;;;;;;;;;;5084257;28;20024;-82
2023/07/11 06:59:44;;;;;;;3.58;2.30;;;;;;;;;;5093530;28;20479;-82
2023/07/11 07:02:10;;;;;;;3.13;2.72;;;;;;;;;;5083106;28;20345;-81
2023/07/11 07:04:35;;;;;;;2.92;2.22;;;;;;;;;;5096732;28;20031;-80
2023/07/11 07:07:00;;;;;;;3.88;2.72;;;;;;;;;;5090997;28;20031;-80
2023/07/11 07:09:26;;;;;;;3.20;2.30;;;;;;;;;;5090681;28;20024;-82
2023/07/11 07:11:51;;;;;;;4.20;2.97;;;;;;;;;;5088629;28;20519;-81
2023/07/11 07:14:18;;;;;;;3.28;2.58;;;;;;;;;;5071079;28;20115;-80
2023/07/11 07:16:44;;;;;;;3.90;3.22;;;;;;;;;;5098610;28;20452;-80
2023/07/11 07:19:10;;;;;;;2.80;2.35;;;;;;;;;;5072913;28;20043;-82
2023/07/11 07:21:36;;;;;;;2.65;2.42;;;;;;;;;;5090527;28;20032;-81
2023/07/11 07:24:02;;;;;;;3.58;2.90;;;;;;;;;;5065417;28;20073;-80
2023/07/11 07:26:27;;;;;;;3.65;2.28;;;;;;;;;;5083657;28;20035;-82
2023/07/11 07:28:52;;;;;;;6.60;2.42;;;;;;;;;;5094030;28;20077;-81
2023/07/11 07:31:18;;;;;;;3.10;2.22;;;;;;;;;;5088638;28;20035;-83
2023/07/11 07:33:44;;;;;;;4.20;2.22;;;;;;;;;;5073052;28;20471;-80
2023/07/11 07:36:12;;;;;;;3.20;2.85;;;;;;;;;;5088483;28;20039;-80
2023/07/11 07:38:39;;;;;;;2.90;2.25;;;;;;;;;;5087129;28;20035;-80
2023/07/11 07:41:07;;;;;;;3.65;2.28;;;;;;;;;;5096102;28;20032;-79
2023/07/11 07:43:36;;;;;;;2.33;1.83;;;;;;;;;;5093447;28;20020;-78
2023/07/11 07:46:03;;;;;;;3.95;2.80;;;;;;;;;;5081281;28;20113;-79
2023/07/11 07:48:29;;;;;;;3.60;2.30;;;;;;;;;;5087218;28;20376;-79
2023/07/11 08:04:26;;;;;;;2.80;2.30;;;;;;;;;;5084712;27;20749;-80
2023/07/11 08:06:52;;;;;;;3.58;2.38;;;;;;;;;;5068516;28;20029;-78
2023/07/11 08:09:18;;;;;;;3.28;2.25;;;;;;;;;;5068460;28;20025;-80
2023/07/11 08:11:44;;;;;;;3.53;2.83;;;;;;;;;;5065249;28;20029;-79
2023/07/11 08:14:10;;;;;;;2.90;2.40;;;;;;;;;;5071624;28;20031;-78
2023/07/11 08:32:15;;;;;;;2.10;1.77;;;;;;;;;;5106342;27;20891;-86
2023/07/11 08:34:41;;;;;;;1.88;1.63;;;;;;;;;;5109319;28;20063;-85
2023/07/11 08:37:08;;;;;;;1.88;1.42;;;;;;;;;;5106925;28;20027;-83
2023/07/11 08:39:33;;;;;;;3.25;1.92;;;;;;;;;;5102221;28;20027;-84
2023/07/11 08:42:05;;;;;;;2.05;1.35;;;;;;;;;;5104524;28;20039;-87
2023/07/11 08:44:35;;;;;;;2.85;1.85;;;;;;;;;;5106774;28;20024;-82
2023/07/11 08:47:07;;;;;;;1.55;1.45;;;;;;;;;;5106312;28;20024;-86
2023/07/11 08:49:41;;;;;;;1.48;1.38;;;;;;;;;;5101368;28;20030;-83
2023/07/11 08:52:09;;;;;;;1.95;1.45;;;;;;;;;;5101603;28;20478;-86
2023/07/11 08:54:42;;;;;;;1.60;1.23;;;;;;;;;;5106364;28;20456;-83
2023/07/11 08:57:09;;;;;;;3.90;1.80;;;;;;;;;;5104395;28;20024;-83
2023/07/11 08:59:45;;;;;;;1.48;1.20;;;;;;;;;;5109148;28;20035;-83
2023/07/11 09:02:40;;;;;;;1.73;1.27;;;;;;;;;;5106109;28;20063;-85
2023/07/11 09:05:12;;;;;;;1.77;1.55;;;;;;;;;;5106893;28;20413;-84
2023/07/11 09:07:43;;;;;;;1.83;1.50;;;;;;;;;;5103642;28;20032;-87
2023/07/11 09:10:27;;;;;;;1.80;1.60;;;;;;;;;;5106053;28;20528;-86
2023/07/11 09:13:14;;;;;;;1.95;1.42;;;;;;;;;;5107476;28;20483;-83
2023/07/11 09:16:07;;;;;;;1.73;1.52;;;;;;;;;;5104663;28;20028;-84
2023/07/11 09:19:07;;;;;;;2.65;1.83;;;;;;;;;;5107805;28;20479;-83
2023/07/11 09:21:57;;;;;;;1.73;1.25;;;;;;;;;;5106903;28;20131;-84
2023/07/11 09:24:31;;;;;;;2.20;1.80;;;;;;;;;;5104570;28;20031;-81
2023/07/11 09:27:24;;;;;;;3.50;1.95;;;;;;;;;;5100985;28;20034;-84
2023/07/11 09:29:50;;;;;;;2.20;1.70;;;;;;;;;;5096054;28;20104;-84
2023/07/11 09:32:17;;;;;;;2.17;1.67;;;;;;;;;;5096057;28;20027;-85
2023/07/11 09:34:46;;;;;;;1.63;1.45;;;;;;;;;;5094288;28;20038;-85
2023/07/11 09:37:34;;;;;;;1.55;1.40;;;;;;;;;;5093183;28;20024;-83
2023/07/11 09:40:27;;;;;;;3.07;2.27;;;;;;;;;;5094004;28;20019;-85
2023/07/11 09:42:55;;;;;;;2.85;2.50;;;;;;;;;;5089664;28;20386;-85
2023/07/11 09:45:27;;;;;;;2.10;1.77;;;;;;;;;;5094530;28;20067;-87
2023/07/11 09:48:03;;;;;;;3.03;1.80;;;;;;;;;;5093317;28;20115;-85
2023/07/11 09:51:00;;;;;;;2.67;1.73;;;;;;;;;;5088701;28;20032;-89
2023/07/11 09:53:28;;;;;;;1.65;1.52;;;;;;;;;;5086171;28;20031;-84
2023/07/11 09:55:59;;;;;;;3.63;2.33;;;;;;;;;;5092937;28;20043;-85
2023/07/11 09:58:29;;;;;;;2.47;1.60;;;;;;;;;;5092871;28;20082;-86
2023/07/11 10:00:58;;;;;;;;;;;;;;;;;;5091150;28;20020;-86
2023/07/11 10:03:27;;;;;;;1.83;1.65;;;;;;;;;;5088244;28;19935;-86
2023/07/11 10:05:54;;;;;;;3.03;1.73;;;;;;;;;;5092900;28;20031;-85
2023/07/11 10:08:21;;;;;;;2.35;1.80;;;;;;;;;;5092872;28;20058;-84
2023/07/11 10:10:52;;;;;;;2.00;1.50;;;;;;;;;;5095695;28;20387;-85
2023/07/11 10:13:18;;;;;;;2.30;1.85;;;;;;;;;;5095063;28;20110;-85
2023/07/11 10:15:55;;;;;;;3.30;1.90;;;;;;;;;;5095926;28;20038;-85
2023/07/11 10:18:32;;;;;;;2.88;1.77;;;;;;;;;;5097748;28;20031;-84
2023/07/11 10:21:12;;;;;;;2.17;1.67;;;;;;;;;;5092903;28;20059;-85
2023/07/11 10:23:38;;;;;;;4.53;2.40;;;;;;;;;;5090702;28;20474;-85
2023/07/11 10:26:20;;;;;;;1.80;1.33;;;;;;;;;;5096150;28;20084;-87
2023/07/11 10:29:02;;;;;;;1.95;1.52;;;;;;;;;;5099027;28;20028;-87
2023/07/11 10:31:33;;;;;;;1.10;1.00;;;;;;;;;;5097097;28;20035;-85
2023/07/11 10:34:32;;;;;;;2.00;1.33;;;;;;;;;;5095522;28;20043;-87
2023/07/11 10:37:06;;;;;;;;;;;;;;;;;;5091351;28;20040;-83
2023/07/11 10:39:47;;;;;;;1.50;1.38;;;;;;;;;;5097350;28;19923;-84
2023/07/11 10:42:28;;;;;;;1.85;1.23;;;;;;;;;;5095238;28;20024;-85
2023/07/11 10:45:07;;;;;;;1.52;1.20;;;;;;;;;;5089538;28;20047;-89
2023/07/11 10:47:39;;;;;;;2.28;1.67;;;;;;;;;;5099622;28;20483;-86
2023/07/11 10:50:23;;;;;;;1.42;1.33;;;;;;;;;;5097386;28;20060;-88
2023/07/11 10:52:52;;;;;;;1.85;1.67;;;;;;;;;;5097857;28;20039;-85
2023/07/11 10:55:26;;;;;;;1.80;1.27;;;;;;;;;;5095727;28;20387;-86
2023/07/11 10:57:53;;;;;;;2.40;2.10;;;;;;;;;;5096147;28;20027;-84
2023/07/11 11:00:25;;;;;;;1.73;1.48;;;;;;;;;;5094285;28;20467;-86
2023/07/11 11:03:12;;;;;;;2.25;1.75;;;;;;;;;;5095852;28;20028;-88
2023/07/11 11:06:09;;;;;;;2.17;1.42;;;;;;;;;;5094851;28;20091;-88
2023/07/11 11:08:45;;;;;;;2.50;1.88;;;;;;;;;;5079818;28;20108;-85
2023/07/11 11:11:30;;;;;;;1.75;1.45;;;;;;;;;;5098608;28;20375;-83
2023/07/11 11:14:04;;;;;;;3.05;1.95;;;;;;;;;;5094734;28;20076;-89
2023/07/11 11:16:34;;;;;;;1.40;1.30;;;;;;;;;;5098319;28;20031;-87
2023/07/11 11:19:18;;;;;;;2.13;1.58;;;;;;;;;;5098339;28;20063;-86
2023/07/11 11:22:02;;;;;;;2.13;1.67;;;;;;;;;;5099464;28;20521;-85
2023/07/11 11:24:30;;;;;;;2.72;1.75;;;;;;;;;;5096389;28;20408;-88
2023/07/11 11:27:01;;;;;;;2.43;1.50;;;;;;;;;;5096039;28;20135;-86
2023/07/11 11:29:40;;;;;;;1.40;1.15;;;;;;;;;;5097599;28;20084;-86
2023/07/11 11:32:54;;;;;;;2.35;1.65;;;;;;;;;;5096723;28;20055;-86
2023/07/11 11:35:58;;;;;;;1.73;1.45;;;;;;;;;;5090542;28;20737;-86
2023/07/11 11:38:38;;;;;;;1.88;1.27;;;;;;;;;;5100091;28;20074;-84
2023/07/11 11:41:12;;;;;;;2.17;1.65;;;;;;;;;;5098468;28;20020;-86
2023/07/11 11:43:40;;;;;;;2.05;1.33;;;;;;;;;;5097275;28;20572;-88
2023/07/11 11:46:07;;;;;;;2.38;1.60;;;;;;;;;;5098363;28;20026;-86
2023/07/11 11:48:36;;;;;;;1.92;1.58;;;;;;;;;;5094001;28;20365;-84
2023/07/11 11:51:06;;;;;;;2.88;1.58;;;;;;;;;;5095388;28;20107;-86
2023/07/11 11:53:34;;;;;;;2.53;1.58;;;;;;;;;;5095718;28;20028;-87
2023/07/11 11:56:05;;;;;;;2.25;1.77;;;;;;;;;;5092408;28;20024;-87
2023/07/11 11:58:34;;;;;;;1.60;1.40;;;;;;;;;;5096573;28;20104;-87
2023/07/11 12:01:03;;;;;;;2.88;1.67;;;;;;;;;;5096010;28;20054;-89
2023/07/11 12:03:44;;;;;;;1.17;1.08;;;;;;;;;;5095722;28;20494;-87
2023/07/11 12:06:36;;;;;;;2.20;1.58;;;;;;;;;;5092153;28;20077;-89
2023/07/11 12:09:16;;;;;;;1.95;1.60;;;;;;;;;;5095784;28;20107;-88
2023/07/11 12:11:44;;;;;;;3.78;2.10;;;;;;;;;;5095516;28;20039;-86
2023/07/11 12:14:36;;;;;;;1.50;1.20;;;;;;;;;;5094721;28;20043;-85
2023/07/11 12:17:02;;;;;;;2.90;1.65;;;;;;;;;;5088660;28;20055;-87
2023/07/11 12:19:50;;;;;;;1.15;1.00;;;;;;;;;;5085766;28;20024;-87
2023/07/11 12:22:22;;;;;;;1.35;1.20;;;;;;;;;;5091027;28;20368;-89
2023/07/11 12:25:03;;;;;;;3.28;1.77;;;;;;;;;;5099201;28;20032;-85
2023/07/11 12:27:28;;;;;;;9.00;1.73;;;;;;;;;;5098070;28;20024;-87
2023/07/11 12:29:54;;;;;;;1.63;1.45;;;;;;;;;;5100786;28;20082;-87
2023/07/11 12:32:32;;;;;;;2.17;1.33;;;;;;;;;;5090572;28;20107;-88
2023/07/11 12:35:14;;;;;;;3.33;1.67;;;;;;;;;;5089531;28;20098;-89
2023/07/11 12:37:39;;;;;;;2.28;1.58;;;;;;;;;;5090085;28;20064;-86
2023/07/11 12:40:11;;;;;;;2.67;1.80;;;;;;;;;;5089813;28;20502;-88
2023/07/11 12:42:52;;;;;;;1.50;1.08;;;;;;;;;;5091887;28;20433;-84
2023/07/11 12:45:21;;;;;;;2.20;1.13;;;;;;;;;;5088642;28;20024;-87
2023/07/11 12:47:50;;;;;;;2.25;2.03;;;;;;;;;;5090002;28;20036;-84
2023/07/11 12:50:32;;;;;;;2.05;1.50;;;;;;;;;;5090761;28;20028;-83
2023/07/11 12:52:59;;;;;;;3.47;1.83;;;;;;;;;;5089976;28;20427;-87
2023/07/11 12:55:25;;;;;;;3.75;1.67;;;;;;;;;;5087288;28;20020;-86
2023/07/11 12:57:50;;;;;;;2.13;1.35;;;;;;;;;;5089248;28;20585;-84
2023/07/11 13:00:21;;;;;;;1.92;1.27;;;;;;;;;;5087652;28;20027;-86
2023/07/11 13:02:49;;;;;;;1.60;1.30;;;;;;;;;;5090920;28;20487;-86
2023/07/11 13:05:14;;;;;;;2.72;1.48;;;;;;;;;;5089456;28;20456;-87
2023/07/11 13:07:40;;;;;;;3.78;1.60;;;;;;;;;;5095867;28;20111;-87
2023/07/11 13:10:20;;;;;;;2.03;1.65;;;;;;;;;;5090975;28;20387;-85
2023/07/11 13:12:47;;;;;;;1.65;1.40;;;;;;;;;;5092609;28;20032;-86
2023/07/11 13:15:17;;;;;;;1.60;1.40;;;;;;;;;;5092870;28;20051;-87
2023/07/11 13:17:44;;;;;;;3.42;1.95;;;;;;;;;;5093831;28;20494;-85
2023/07/11 13:20:24;;;;;;;2.90;1.83;;;;;;;;;;5091404;28;20111;-84
2023/07/11 13:22:51;;;;;;;2.35;1.60;;;;;;;;;;5088920;28;20039;-86
2023/07/11 13:25:30;;;;;;;2.30;1.80;;;;;;;;;;5093010;28;20031;-83
2023/07/11 13:27:56;;;;;;;1.08;0.88;;;;;;;;;;5091948;28;20028;-86
2023/07/11 13:30:25;;;;;;;1.88;1.30;;;;;;;;;;5093991;28;20491;-87
2023/07/11 13:32:56;;;;;;;1.50;1.40;;;;;;;;;;5093323;28;20028;-85
2023/07/11 13:35:23;;;;;;;2.28;1.65;;;;;;;;;;5093459;28;20031;-86
2023/07/11 13:37:50;;;;;;;2.63;1.83;;;;;;;;;;5095095;28;20073;-87
2023/07/11 13:40:34;;;;;;;1.27;0.95;;;;;;;;;;5090824;28;20696;-87
2023/07/11 13:43:01;;;;;;;2.15;1.70;;;;;;;;;;5092131;28;20114;-89
2023/07/11 13:45:26;;;;;;;2.03;1.38;;;;;;;;;;5093399;28;20152;-88
2023/07/11 13:47:53;;;;;;;2.15;1.25;;;;;;;;;;5093374;28;20468;-84
2023/07/11 13:50:29;;;;;;;2.15;1.48;;;;;;;;;;5090352;28;20039;-86
2023/07/11 13:53:12;;;;;;;2.45;1.50;;;;;;;;;;5094536;28;20296;-87
2023/07/11 13:55:47;;;;;;;1.88;1.50;;;;;;;;;;5077689;28;20036;-88
2023/07/11 13:58:13;;;;;;;1.45;1.17;;;;;;;;;;5094731;28;20020;-87
2023/07/11 14:00:47;;;;;;;1.10;0.98;;;;;;;;;;5094674;28;20028;-89
2023/07/11 14:03:24;;;;;;;1.42;1.33;;;;;;;;;;5093013;28;20024;-83
2023/07/11 14:05:55;;;;;;;1.33;1.20;;;;;;;;;;5090672;28;20024;-85
2023/07/11 14:08:21;;;;;;;1.30;1.02;;;;;;;;;;5089999;28;20027;-86
2023/07/11 14:10:48;;;;;;;1.52;1.23;;;;;;;;;;5093500;28;20092;-86
2023/07/11 14:13:20;;;;;;;1.38;1.27;;;;;;;;;;5093596;28;20034;-89
2023/07/11 14:15:45;;;;;;;1.80;1.00;;;;;;;;;;5093905;28;20440;-89
2023/07/11 14:18:11;;;;;;;2.15;1.10;;;;;;;;;;5091583;28;20098;-87
2023/07/11 14:20:37;;;;;;;1.50;1.15;;;;;;;;;;5092397;28;20101;-90
2023/07/11 14:23:10;;;;;;;2.42;1.60;;;;;;;;;;5093071;28;20500;-88
2023/07/11 14:25:36;;;;;;;2.38;1.33;;;;;;;;;;5094083;28;20502;-91
2023/07/11 14:28:01;;;;;;;1.00;0.90;;;;;;;;;;5084591;28;20024;-91
2023/07/11 14:30:27;;;;;;;1.42;1.13;;;;;;;;;;5089205;28;20032;-89
2023/07/11 14:32:53;;;;;;;1.08;0.93;;;;;;;;;;5092847;28;20026;-88
2023/07/11 14:35:22;;;;;;;1.48;1.10;;;;;;;;;;5094322;28;20106;-87
2023/07/11 14:37:49;;;;;;;1.60;1.40;;;;;;;;;;5089694;28;20028;-89
2023/07/11 14:40:15;;;;;;;1.90;1.17;;;;;;;;;;5091323;28;20034;-87
2023/07/11 14:42:41;;;;;;;0.98;0.93;;;;;;;;;;5092523;28;20028;-89
2023/07/11 14:45:16;;;;;;;1.35;1.25;;;;;;;;;;5093344;28;20023;-89
2023/07/11 14:47:43;;;;;;;2.03;1.45;;;;;;;;;;5093286;28;20798;-85
2023/07/11 14:50:31;;;;;;;2.40;1.63;;;;;;;;;;5093737;28;20020;-87
2023/07/11 14:52:58;;;;;;;1.40;1.15;;;;;;;;;;5090988;28;20020;-86
2023/07/11 14:55:23;;;;;;;1.33;1.08;;;;;;;;;;5088906;28;20031;-86
2023/07/11 14:57:50;;;;;;;1.33;0.98;;;;;;;;;;5092814;28;20383;-86
2023/07/11 15:00:22;;;;;;;1.30;1.05;;;;;;;;;;5091988;28;20031;-86
2023/07/11 15:02:48;;;;;;;1.40;0.88;;;;;;;;;;5091751;28;20525;-84
2023/07/11 15:05:28;;;;;;;1.20;0.82;;;;;;;;;;5092442;28;20173;-87
2023/07/11 15:07:56;;;;;;;1.25;1.15;;;;;;;;;;5091591;28;20031;-86
2023/07/11 15:10:23;;;;;;;1.42;1.13;;;;;;;;;;5087197;28;20039;-87
2023/07/11 15:12:49;;;;;;;1.27;1.08;;;;;;;;;;5091468;28;20024;-86
2023/07/11 15:15:21;;;;;;;1.42;1.33;;;;;;;;;;5093011;28;20034;-88
2023/07/11 15:17:46;;;;;;;0.93;0.80;;;;;;;;;;5124629;27;20028;-84
2023/07/11 15:20:14;;;;;;;1.75;1.23;;;;;;;;;;5091341;28;20034;-85
2023/07/11 15:22:42;;;;;;;1.10;1.00;;;;;;;;;;5091815;28;20032;-85
2023/07/11 15:25:29;;;;;;;1.40;1.10;;;;;;;;;;5091607;28;20028;-86
2023/07/11 15:27:55;;;;;;;1.25;1.00;;;;;;;;;;5090511;28;20383;-86